sensor_id;sensor_type;location;lat;lon;timestamp;pressure;altitude;pressure_sealevel;temperature;humidity
7966;BME280;4028;43.272;26.932;2024-02-26T00:00:01;98891.84;;;9.70;100.00
7966;BME280;4028;43.272;26.932;2024-02-26T00:02:27;98894.78;;;9.57;100.00
7966;BME280;4028;43.272;26.932;2024-02-26T00:04:52;98888.78;;;9.64;100.00
7966;BME280;4028;43.272;26.932;2024-02-26T00:07:18;98882.13;;;9.60;100.00
7966;BME280;4028;43.272;26.932;2024-02-26T00:09:43;98882.97;;;9.61;100.00
7966;BME280;4028;43.272;26.932;2024-02-26T00:12:09;98862.59;;;9.34;100.00
7966;BME280;4028;43.272;26.932;2024-02-26T00:14:34;98883.97;;;9.41;100.00
7966;BME280;4028;43.272;26.932;2024-02-26T00:17:00;98889.81;;;9.54;100.00
7966;BME280;4028;43.272;26.932;2024-02-26T00:19:25;98883.09;;;9.59;100.00
7966;BME280;4028;43.272;26.932;2024-02-26T00:21:51;98874.66;;;9.46;100.00
7966;BME280;4028;43.272;26.932;2024-02-26T00:24:19;98866.22;;;9.33;100.00
7966;BME280;4028;43.272;26.932;2024-02-26T00:26:44;98874.53;;;9.48;100.00
7966;BME280;4028;43.272;26.932;2024-02-26T00:29:10;98878.44;;;9.34;100.00
7966;BME280;4028;43.272;26.932;2024-02-26T00:31:36;98879.25;;;9.44;100.00
7966;BME280;4028;43.272;26.932;2024-02-26T00:34:02;98874.16;;;9.33;100.00
7966;BME280;4028;43.272;26.932;2024-02-26T00:36:27;98875.75;;;9.53;100.00
7966;BME280;4028;43.272;26.932;2024-02-26T00:38:53;98876.50;;;9.26;100.00
7966;BME280;4028;43.272;26.932;2024-02-26T00:41:20;98855.91;;;9.40;100.00
7966;BME280;4028;43.272;26.932;2024-02-26T00:43:46;98837.97;;;8.96;100.00
7966;BME280;4028;43.272;26.932;2024-02-26T00:46:11;98870.03;;;9.01;100.00
7966;BME280;4028;43.272;26.932;2024-02-26T00:48:37;98870.03;;;9.01;100.00
7966;BME280;4028;43.272;26.932;2024-02-26T00:51:03;98868.66;;;8.97;100.00
7966;BME280;4028;43.272;26.932;2024-02-26T00:53:31;98864.75;;;9.11;100.00
7966;BME280;4028;43.272;26.932;2024-02-26T00:55:56;98846.28;;;9.01;100.00
7966;BME280;4028;43.272;26.932;2024-02-26T00:58:23;98855.19;;;8.91;100.00
7966;BME280;4028;43.272;26.932;2024-02-26T01:00:49;98858.78;;;8.99;100.00
7966;BME280;4028;43.272;26.932;2024-02-26T01:03:14;98838.50;;;9.00;100.00
7966;BME280;4028;43.272;26.932;2024-02-26T01:05:40;98851.66;;;9.09;100.00
7966;BME280;4028;43.272;26.932;2024-02-26T01:08:05;98850.97;;;9.27;100.00
7966;BME280;4028;43.272;26.932;2024-02-26T01:10:31;98853.50;;;8.90;100.00
7966;BME280;4028;43.272;26.932;2024-02-26T01:12:56;98845.75;;;8.78;100.00
7966;BME280;4028;43.272;26.932;2024-02-26T01:15:22;98772.72;;;8.30;100.00
7966;BME280;4028;43.272;26.932;2024-02-26T01:17:49;98850.44;;;8.84;100.00
7966;BME280;4028;43.272;26.932;2024-02-26T01:20:16;98847.28;;;8.91;100.00
7966;BME280;4028;43.272;26.932;2024-02-26T01:22:42;98841.84;;;9.02;100.00
7966;BME280;4028;43.272;26.932;2024-02-26T01:25:08;98843.47;;;9.22;100.00
7966;BME280;4028;43.272;26.932;2024-02-26T01:27:35;98846.09;;;9.32;100.00
7966;BME280;4028;43.272;26.932;2024-02-26T01:30:05;98840.06;;;9.40;100.00
7966;BME280;4028;43.272;26.932;2024-02-26T01:32:31;98836.94;;;9.17;100.00
7966;BME280;4028;43.272;26.932;2024-02-26T01:34:57;98836.63;;;9.29;100.00
7966;BME280;4028;43.272;26.932;2024-02-26T01:37:22;98831.44;;;8.91;100.00
7966;BME280;4028;43.272;26.932;2024-02-26T01:39:48;98839.34;;;8.91;100.00
7966;BME280;4028;43.272;26.932;2024-02-26T01:42:13;98840.47;;;8.78;100.00
7966;BME280;4028;43.272;26.932;2024-02-26T01:44:39;98832.97;;;8.74;100.00
7966;BME280;4028;43.272;26.932;2024-02-26T01:47:10;98832.13;;;8.83;100.00
7966;BME280;4028;43.272;26.932;2024-02-26T01:49:36;98830.06;;;8.67;100.00
7966;BME280;4028;43.272;26.932;2024-02-26T01:52:03;98838.81;;;8.77;100.00
7966;BME280;4028;43.272;26.932;2024-02-26T01:54:30;98833.69;;;8.76;100.00
7966;BME280;4028;43.272;26.932;2024-02-26T01:56:57;98826.69;;;8.84;100.00
7966;BME280;4028;43.272;26.932;2024-02-26T01:59:23;98822.56;;;8.72;100.00
7966;BME280;4028;43.272;26.932;2024-02-26T02:01:52;98837.97;;;8.67;100.00
7966;BME280;4028;43.272;26.932;2024-02-26T02:04:19;98839.09;;;8.45;100.00
7966;BME280;4028;43.272;26.932;2024-02-26T02:06:46;98811.53;;;8.09;100.00
7966;BME280;4028;43.272;26.932;2024-02-26T02:09:11;98809.28;;;7.95;100.00
7966;BME280;4028;43.272;26.932;2024-02-26T02:11:37;98848.88;;;8.14;100.00
7966;BME280;4028;43.272;26.932;2024-02-26T02:14:03;98842.25;;;8.58;100.00
7966;BME280;4028;43.272;26.932;2024-02-26T02:16:29;98789.41;;;8.50;100.00
7966;BME280;4028;43.272;26.932;2024-02-26T02:18:54;98842.41;;;8.96;100.00
7966;BME280;4028;43.272;26.932;2024-02-26T02:21:19;98832.38;;;8.99;100.00
7966;BME280;4028;43.272;26.932;2024-02-26T02:23:45;98834.09;;;8.91;100.00
7966;BME280;4028;43.272;26.932;2024-02-26T02:26:14;98823.81;;;8.49;100.00
7966;BME280;4028;43.272;26.932;2024-02-26T02:28:40;98836.53;;;8.34;100.00
7966;BME280;4028;43.272;26.932;2024-02-26T02:31:06;98798.34;;;8.19;100.00
7966;BME280;4028;43.272;26.932;2024-02-26T02:33:33;98791.28;;;8.29;100.00
7966;BME280;4028;43.272;26.932;2024-02-26T02:35:59;98838.94;;;8.47;100.00
7966;BME280;4028;43.272;26.932;2024-02-26T02:38:24;98844.78;;;8.60;100.00
7966;BME280;4028;43.272;26.932;2024-02-26T02:40:53;98842.91;;;8.31;100.00
7966;BME280;4028;43.272;26.932;2024-02-26T02:43:19;98851.63;;;8.22;100.00
7966;BME280;4028;43.272;26.932;2024-02-26T02:45:44;98837.78;;;8.30;100.00
7966;BME280;4028;43.272;26.932;2024-02-26T02:48:13;98835.56;;;8.35;100.00
7966;BME280;4028;43.272;26.932;2024-02-26T02:50:39;98794.91;;;8.28;100.00
7966;BME280;4028;43.272;26.932;2024-02-26T02:53:04;98836.97;;;8.39;100.00
7966;BME280;4028;43.272;26.932;2024-02-26T02:55:30;98840.59;;;8.38;100.00
7966;BME280;4028;43.272;26.932;2024-02-26T02:57:55;98843.47;;;8.35;100.00
7966;BME280;4028;43.272;26.932;2024-02-26T03:00:21;98844.06;;;8.58;100.00
7966;BME280;4028;43.272;26.932;2024-02-26T03:02:48;98841.38;;;8.29;100.00
7966;BME280;4028;43.272;26.932;2024-02-26T03:05:14;98838.97;;;8.06;100.00
7966;BME280;4028;43.272;26.932;2024-02-26T03:07:40;98835.94;;;8.11;100.00
7966;BME280;4028;43.272;26.932;2024-02-26T03:10:05;98838.53;;;8.42;100.00
7966;BME280;4028;43.272;26.932;2024-02-26T03:12:33;98810.00;;;8.06;100.00
7966;BME280;4028;43.272;26.932;2024-02-26T03:14:59;98843.47;;;8.35;100.00
7966;BME280;4028;43.272;26.932;2024-02-26T03:17:28;98843.38;;;8.37;100.00
7966;BME280;4028;43.272;26.932;2024-02-26T03:19:54;98836.53;;;8.34;100.00
7966;BME280;4028;43.272;26.932;2024-02-26T03:22:19;98810.09;;;7.86;100.00
7966;BME280;4028;43.272;26.932;2024-02-26T03:24:46;98840.81;;;8.16;100.00
7966;BME280;4028;43.272;26.932;2024-02-26T03:27:11;98834.28;;;8.10;100.00
7966;BME280;4028;43.272;26.932;2024-02-26T03:29:37;98839.00;;;8.16;100.00
7966;BME280;4028;43.272;26.932;2024-02-26T03:32:03;98833.78;;;8.36;100.00
7966;BME280;4028;43.272;26.932;2024-02-26T03:34:28;98837.13;;;8.38;100.00
7966;BME280;4028;43.272;26.932;2024-02-26T03:36:55;98835.88;;;8.42;100.00
7966;BME280;4028;43.272;26.932;2024-02-26T03:39:21;98835.06;;;8.51;100.00
7966;BME280;4028;43.272;26.932;2024-02-26T03:41:48;98832.81;;;8.37;100.00
7966;BME280;4028;43.272;26.932;2024-02-26T03:44:13;98835.69;;;8.14;100.00
7966;BME280;4028;43.272;26.932;2024-02-26T03:46:39;98832.38;;;8.31;100.00
7966;BME280;4028;43.272;26.932;2024-02-26T03:49:04;98828.47;;;8.16;100.00
7966;BME280;4028;43.272;26.932;2024-02-26T03:51:30;98834.81;;;8.04;100.00
7966;BME280;4028;43.272;26.932;2024-02-26T03:53:57;98830.13;;;8.17;100.00
7966;BME280;4028;43.272;26.932;2024-02-26T03:56:23;98840.84;;;8.25;100.00
7966;BME280;4028;43.272;26.932;2024-02-26T03:58:49;98839.50;;;8.50;100.00
7966;BME280;4028;43.272;26.932;2024-02-26T04:01:14;98836.56;;;8.63;100.00
7966;BME280;4028;43.272;26.932;2024-02-26T04:03:40;98831.31;;;8.82;100.00
7966;BME280;4028;43.272;26.932;2024-02-26T04:06:08;98832.13;;;8.64;100.00
7966;BME280;4028;43.272;26.932;2024-02-26T04:08:35;98839.63;;;8.49;100.00
7966;BME280;4028;43.272;26.932;2024-02-26T04:11:01;98847.09;;;8.44;100.00
7966;BME280;4028;43.272;26.932;2024-02-26T04:13:27;98841.16;;;8.51;100.00
7966;BME280;4028;43.272;26.932;2024-02-26T04:15:53;98836.97;;;8.49;100.00
7966;BME280;4028;43.272;26.932;2024-02-26T04:18:18;98837.06;;;8.28;100.00
7966;BME280;4028;43.272;26.932;2024-02-26T04:20:44;98838.06;;;8.27;100.00
7966;BME280;4028;43.272;26.932;2024-02-26T04:23:09;98841.81;;;8.24;100.00
7966;BME280;4028;43.272;26.932;2024-02-26T04:25:35;98830.41;;;8.33;100.00
7966;BME280;4028;43.272;26.932;2024-02-26T04:28:00;98759.31;;;7.64;100.00
7966;BME280;4028;43.272;26.932;2024-02-26T04:30:25;98833.03;;;8.24;100.00
7966;BME280;4028;43.272;26.932;2024-02-26T04:32:51;98841.25;;;8.30;100.00
7966;BME280;4028;43.272;26.932;2024-02-26T04:35:17;98833.91;;;8.24;100.00
7966;BME280;4028;43.272;26.932;2024-02-26T04:37:42;98829.78;;;8.41;100.00
7966;BME280;4028;43.272;26.932;2024-02-26T04:40:08;98823.69;;;8.41;100.00
7966;BME280;4028;43.272;26.932;2024-02-26T04:42:33;98818.94;;;8.34;100.00
7966;BME280;4028;43.272;26.932;2024-02-26T04:44:59;98822.38;;;8.35;100.00
7966;BME280;4028;43.272;26.932;2024-02-26T04:47:24;98826.75;;;8.65;100.00
7966;BME280;4028;43.272;26.932;2024-02-26T04:49:50;98753.81;;;7.96;100.00
7966;BME280;4028;43.272;26.932;2024-02-26T04:52:16;98835.13;;;8.20;100.00
7966;BME280;4028;43.272;26.932;2024-02-26T04:54:41;98835.91;;;8.01;100.00
7966;BME280;4028;43.272;26.932;2024-02-26T04:57:07;98834.22;;;7.91;100.00
7966;BME280;4028;43.272;26.932;2024-02-26T04:59:32;98832.69;;;7.88;100.00
7966;BME280;4028;43.272;26.932;2024-02-26T05:01:58;98836.28;;;7.87;100.00
7966;BME280;4028;43.272;26.932;2024-02-26T05:04:23;98844.41;;;8.05;100.00
7966;BME280;4028;43.272;26.932;2024-02-26T05:06:49;98840.91;;;7.95;100.00
7966;BME280;4028;43.272;26.932;2024-02-26T05:09:14;98844.31;;;7.76;100.00
7966;BME280;4028;43.272;26.932;2024-02-26T05:11:39;98841.97;;;7.82;100.00
7966;BME280;4028;43.272;26.932;2024-02-26T05:14:05;98840.88;;;7.85;100.00
7966;BME280;4028;43.272;26.932;2024-02-26T05:16:31;98842.09;;;7.81;100.00
7966;BME280;4028;43.272;26.932;2024-02-26T05:18:57;98848.13;;;7.62;100.00
7966;BME280;4028;43.272;26.932;2024-02-26T05:21:22;98855.81;;;7.75;100.00
7966;BME280;4028;43.272;26.932;2024-02-26T05:23:48;98864.72;;;7.93;100.00
7966;BME280;4028;43.272;26.932;2024-02-26T05:26:23;98836.78;;;8.21;100.00
7966;BME280;4028;43.272;26.932;2024-02-26T05:28:49;98849.75;;;8.63;100.00
7966;BME280;4028;43.272;26.932;2024-02-26T05:31:15;98776.63;;;8.36;100.00
7966;BME280;4028;43.272;26.932;2024-02-26T05:33:40;98862.94;;;9.02;100.00
7966;BME280;4028;43.272;26.932;2024-02-26T05:36:06;98868.34;;;9.10;100.00
7966;BME280;4028;43.272;26.932;2024-02-26T05:38:32;98875.16;;;9.03;100.00
7966;BME280;4028;43.272;26.932;2024-02-26T05:40:58;98882.25;;;8.93;100.00
7966;BME280;4028;43.272;26.932;2024-02-26T05:43:24;98876.31;;;8.91;100.00
7966;BME280;4028;43.272;26.932;2024-02-26T05:45:50;98835.41;;;8.27;100.00
7966;BME280;4028;43.272;26.932;2024-02-26T05:48:15;98888.19;;;8.37;100.00
7966;BME280;4028;43.272;26.932;2024-02-26T05:50:41;98884.34;;;8.10;100.00
7966;BME280;4028;43.272;26.932;2024-02-26T05:53:06;98894.91;;;8.20;100.00
7966;BME280;4028;43.272;26.932;2024-02-26T05:55:32;98900.88;;;8.22;100.00
7966;BME280;4028;43.272;26.932;2024-02-26T05:57:58;98887.97;;;8.19;100.00
7966;BME280;4028;43.272;26.932;2024-02-26T06:00:23;98897.84;;;8.26;100.00
7966;BME280;4028;43.272;26.932;2024-02-26T06:02:48;98890.38;;;8.31;100.00
7966;BME280;4028;43.272;26.932;2024-02-26T06:05:14;98899.78;;;8.34;100.00
7966;BME280;4028;43.272;26.932;2024-02-26T06:07:39;98898.97;;;8.33;100.00
7966;BME280;4028;43.272;26.932;2024-02-26T06:10:05;98907.78;;;8.63;100.00
7966;BME280;4028;43.272;26.932;2024-02-26T06:12:31;98910.72;;;8.60;100.00
7966;BME280;4028;43.272;26.932;2024-02-26T06:14:56;98881.28;;;8.45;100.00
7966;BME280;4028;43.272;26.932;2024-02-26T06:17:22;98913.34;;;8.99;100.00
7966;BME280;4028;43.272;26.932;2024-02-26T06:19:48;98906.00;;;8.93;100.00
7966;BME280;4028;43.272;26.932;2024-02-26T06:22:13;98882.41;;;9.01;100.00
7966;BME280;4028;43.272;26.932;2024-02-26T06:24:39;98908.50;;;9.04;100.00
7966;BME280;4028;43.272;26.932;2024-02-26T06:27:04;98895.53;;;9.40;100.00
7966;BME280;4028;43.272;26.932;2024-02-26T06:29:30;98888.44;;;9.40;100.00
7966;BME280;4028;43.272;26.932;2024-02-26T06:31:55;98890.06;;;9.51;100.00
7966;BME280;4028;43.272;26.932;2024-02-26T06:34:21;98888.78;;;9.64;100.00
7966;BME280;4028;43.272;26.932;2024-02-26T06:36:46;98896.06;;;9.90;100.00
7966;BME280;4028;43.272;26.932;2024-02-26T06:39:12;98895.72;;;10.03;100.00
7966;BME280;4028;43.272;26.932;2024-02-26T06:41:38;98893.34;;;10.37;100.00
7966;BME280;4028;43.272;26.932;2024-02-26T06:44:04;98898.34;;;10.40;100.00
7966;BME280;4028;43.272;26.932;2024-02-26T06:46:30;98908.13;;;10.57;100.00
7966;BME280;4028;43.272;26.932;2024-02-26T06:48:56;98900.94;;;10.67;100.00
7966;BME280;4028;43.272;26.932;2024-02-26T06:51:21;98905.75;;;10.36;100.00
7966;BME280;4028;43.272;26.932;2024-02-26T06:53:47;98890.34;;;10.22;100.00
7966;BME280;4028;43.272;26.932;2024-02-26T06:56:13;98905.13;;;10.25;100.00
7966;BME280;4028;43.272;26.932;2024-02-26T06:58:38;98824.59;;;9.82;100.00
7966;BME280;4028;43.272;26.932;2024-02-26T07:01:04;98901.38;;;10.45;100.00
7966;BME280;4028;43.272;26.932;2024-02-26T07:03:29;98904.19;;;10.79;100.00
7966;BME280;4028;43.272;26.932;2024-02-26T07:05:55;98915.59;;;11.33;100.00
7966;BME280;4028;43.272;26.932;2024-02-26T07:08:21;98906.97;;;11.31;100.00
7966;BME280;4028;43.272;26.932;2024-02-26T07:10:46;98883.72;;;11.25;100.00
7966;BME280;4028;43.272;26.932;2024-02-26T07:13:12;98912.84;;;11.69;100.00
7966;BME280;4028;43.272;26.932;2024-02-26T07:15:37;98909.94;;;11.80;100.00
7966;BME280;4028;43.272;26.932;2024-02-26T07:18:03;98912.81;;;11.87;100.00
7966;BME280;4028;43.272;26.932;2024-02-26T07:20:29;98915.84;;;12.34;100.00
7966;BME280;4028;43.272;26.932;2024-02-26T07:22:55;98908.72;;;12.43;100.00
7966;BME280;4028;43.272;26.932;2024-02-26T07:25:21;98905.97;;;12.69;100.00
7966;BME280;4028;43.272;26.932;2024-02-26T07:27:46;98911.25;;;12.53;100.00
7966;BME280;4028;43.272;26.932;2024-02-26T07:30:12;98908.56;;;12.36;100.00
7966;BME280;4028;43.272;26.932;2024-02-26T07:32:38;98912.69;;;13.06;100.00
7966;BME280;4028;43.272;26.932;2024-02-26T07:35:04;98891.94;;;13.42;100.00
7966;BME280;4028;43.272;26.932;2024-02-26T07:37:30;98907.16;;;14.28;100.00
7966;BME280;4028;43.272;26.932;2024-02-26T07:39:56;98901.13;;;14.96;100.00
7966;BME280;4028;43.272;26.932;2024-02-26T07:42:21;98904.97;;;14.71;100.00
7966;BME280;4028;43.272;26.932;2024-02-26T07:44:47;98901.03;;;14.90;100.00
7966;BME280;4028;43.272;26.932;2024-02-26T07:47:12;98897.38;;;15.28;100.00
7966;BME280;4028;43.272;26.932;2024-02-26T07:49:38;98897.47;;;16.17;100.00
7966;BME280;4028;43.272;26.932;2024-02-26T07:52:04;98900.31;;;15.86;100.00
7966;BME280;4028;43.272;26.932;2024-02-26T07:54:30;98909.81;;;15.36;100.00
7966;BME280;4028;43.272;26.932;2024-02-26T07:56:55;98905.38;;;14.82;100.00
7966;BME280;4028;43.272;26.932;2024-02-26T07:59:21;98873.13;;;14.77;100.00
7966;BME280;4028;43.272;26.932;2024-02-26T08:01:52;98905.63;;;15.56;100.00
7966;BME280;4028;43.272;26.932;2024-02-26T08:04:18;98899.81;;;15.53;100.00
7966;BME280;4028;43.272;26.932;2024-02-26T08:06:43;98907.75;;;15.23;100.00
7966;BME280;4028;43.272;26.932;2024-02-26T08:09:09;98912.78;;;15.56;100.00
7966;BME280;4028;43.272;26.932;2024-02-26T08:11:34;98910.22;;;15.63;100.00
7966;BME280;4028;43.272;26.932;2024-02-26T08:14:00;98899.63;;;15.92;100.00
7966;BME280;4028;43.272;26.932;2024-02-26T08:16:25;98910.19;;;16.66;100.00
7966;BME280;4028;43.272;26.932;2024-02-26T08:18:51;98911.00;;;17.03;99.05
7966;BME280;4028;43.272;26.932;2024-02-26T08:21:16;98901.72;;;17.48;91.74
7966;BME280;4028;43.272;26.932;2024-02-26T08:23:43;98868.50;;;17.64;90.02
7966;BME280;4028;43.272;26.932;2024-02-26T08:26:09;98904.84;;;17.52;95.97
7966;BME280;4028;43.272;26.932;2024-02-26T08:28:38;98898.16;;;17.62;88.89
7966;BME280;4028;43.272;26.932;2024-02-26T08:31:04;98881.09;;;17.91;85.78
7966;BME280;4028;43.272;26.932;2024-02-26T08:33:30;98897.06;;;17.85;89.80
7966;BME280;4028;43.272;26.932;2024-02-26T08:35:56;98905.06;;;17.29;96.63
7966;BME280;4028;43.272;26.932;2024-02-26T08:38:21;98889.88;;;17.08;100.00
7966;BME280;4028;43.272;26.932;2024-02-26T08:40:47;98909.31;;;16.44;100.00
7966;BME280;4028;43.272;26.932;2024-02-26T08:43:12;98902.63;;;16.70;100.00
7966;BME280;4028;43.272;26.932;2024-02-26T08:45:38;98904.28;;;15.90;100.00
7966;BME280;4028;43.272;26.932;2024-02-26T08:48:03;98905.94;;;15.76;100.00
7966;BME280;4028;43.272;26.932;2024-02-26T08:50:29;98902.66;;;16.04;100.00
7966;BME280;4028;43.272;26.932;2024-02-26T08:52:54;98903.53;;;15.81;100.00
7966;BME280;4028;43.272;26.932;2024-02-26T08:55:20;98898.25;;;15.58;100.00
7966;BME280;4028;43.272;26.932;2024-02-26T08:57:45;98909.41;;;15.62;100.00
7966;BME280;4028;43.272;26.932;2024-02-26T09:00:11;98900.88;;;16.11;100.00
7966;BME280;4028;43.272;26.932;2024-02-26T09:02:37;98893.06;;;16.09;100.00
7966;BME280;4028;43.272;26.932;2024-02-26T09:05:07;98892.41;;;16.73;100.00
7966;BME280;4028;43.272;26.932;2024-02-26T09:07:33;98898.16;;;16.92;100.00
7966;BME280;4028;43.272;26.932;2024-02-26T09:09:58;98895.47;;;17.13;95.86
7966;BME280;4028;43.272;26.932;2024-02-26T09:12:24;98887.03;;;17.65;93.22
7966;BME280;4028;43.272;26.932;2024-02-26T09:14:49;98888.69;;;18.36;85.77
7966;BME280;4028;43.272;26.932;2024-02-26T09:17:15;98885.06;;;18.57;82.89
7966;BME280;4028;43.272;26.932;2024-02-26T09:19:40;98882.59;;;18.55;72.62
7966;BME280;4028;43.272;26.932;2024-02-26T09:22:07;98881.47;;;18.36;73.47
7966;BME280;4028;43.272;26.932;2024-02-26T09:24:33;98883.72;;;18.87;73.25
7966;BME280;4028;43.272;26.932;2024-02-26T09:26:58;98820.38;;;17.99;75.89
7966;BME280;4028;43.272;26.932;2024-02-26T09:29:24;98872.38;;;18.92;75.79
7966;BME280;4028;43.272;26.932;2024-02-26T09:31:51;98876.56;;;19.14;71.30
7966;BME280;4028;43.272;26.932;2024-02-26T09:34:17;98856.91;;;19.54;68.95
7966;BME280;4028;43.272;26.932;2024-02-26T09:36:43;98868.28;;;20.34;63.65
7966;BME280;4028;43.272;26.932;2024-02-26T09:39:08;98879.44;;;20.37;63.04
7966;BME280;4028;43.272;26.932;2024-02-26T09:41:37;98872.06;;;20.19;62.80
7966;BME280;4028;43.272;26.932;2024-02-26T09:44:04;98872.00;;;19.35;64.39
7966;BME280;4028;43.272;26.932;2024-02-26T09:46:30;98870.34;;;19.34;65.81
7966;BME280;4028;43.272;26.932;2024-02-26T09:48:56;98871.38;;;19.53;64.54
7966;BME280;4028;43.272;26.932;2024-02-26T09:51:25;98876.13;;;19.17;65.30
7966;BME280;4028;43.272;26.932;2024-02-26T09:53:51;98870.75;;;19.24;66.22
7966;BME280;4028;43.272;26.932;2024-02-26T09:56:17;98871.59;;;19.38;66.40
7966;BME280;4028;43.272;26.932;2024-02-26T09:58:43;98865.38;;;19.57;63.39
7966;BME280;4028;43.272;26.932;2024-02-26T10:01:13;98858.91;;;20.05;59.88
7966;BME280;4028;43.272;26.932;2024-02-26T10:03:41;98856.50;;;20.48;59.68
7966;BME280;4028;43.272;26.932;2024-02-26T10:06:08;98857.69;;;21.15;55.83
7966;BME280;4028;43.272;26.932;2024-02-26T10:08:35;98853.59;;;20.43;58.88
7966;BME280;4028;43.272;26.932;2024-02-26T10:11:02;98846.53;;;20.87;56.40
7966;BME280;4028;43.272;26.932;2024-02-26T10:13:28;98849.47;;;21.10;55.04
7966;BME280;4028;43.272;26.932;2024-02-26T10:15:53;98860.25;;;21.03;55.89
7966;BME280;4028;43.272;26.932;2024-02-26T10:18:19;98853.34;;;20.89;54.49
7966;BME280;4028;43.272;26.932;2024-02-26T10:21:00;98830.22;;;20.50;55.78
7966;BME280;4028;43.272;26.932;2024-02-26T10:23:29;98851.72;;;20.82;55.04
7966;BME280;4028;43.272;26.932;2024-02-26T10:25:55;98848.88;;;20.76;53.70
7966;BME280;4028;43.272;26.932;2024-02-26T10:28:21;98845.53;;;21.38;52.57
7966;BME280;4028;43.272;26.932;2024-02-26T10:30:47;98831.31;;;22.59;50.22
7966;BME280;4028;43.272;26.932;2024-02-26T10:33:13;98821.28;;;23.20;49.24
7966;BME280;4028;43.272;26.932;2024-02-26T10:35:40;98826.81;;;23.83;46.10
7966;BME280;4028;43.272;26.932;2024-02-26T10:38:07;98828.91;;;23.58;46.61
7966;BME280;4028;43.272;26.932;2024-02-26T10:40:32;98822.56;;;23.17;46.08
7966;BME280;4028;43.272;26.932;2024-02-26T10:42:58;98824.22;;;23.42;45.93
7966;BME280;4028;43.272;26.932;2024-02-26T10:45:24;98818.47;;;23.15;45.81
7966;BME280;4028;43.272;26.932;2024-02-26T10:47:50;98810.72;;;24.29;43.85
7966;BME280;4028;43.272;26.932;2024-02-26T10:50:16;98806.03;;;24.98;43.10
7966;BME280;4028;43.272;26.932;2024-02-26T10:52:42;98811.47;;;25.15;41.48
7966;BME280;4028;43.272;26.932;2024-02-26T10:55:15;98818.97;;;24.22;42.60
7966;BME280;4028;43.272;26.932;2024-02-26T10:57:41;98815.00;;;24.13;41.68
7966;BME280;4028;43.272;26.932;2024-02-26T11:00:10;98804.75;;;24.15;42.13
7966;BME280;4028;43.272;26.932;2024-02-26T11:02:40;98810.16;;;23.40;43.80
7966;BME280;4028;43.272;26.932;2024-02-26T11:05:06;98805.09;;;23.20;44.22
7966;BME280;4028;43.272;26.932;2024-02-26T11:07:35;98770.22;;;23.18;44.37
7966;BME280;4028;43.272;26.932;2024-02-26T11:10:03;98794.81;;;22.87;45.58
7966;BME280;4028;43.272;26.932;2024-02-26T11:12:31;98789.47;;;23.57;44.05
7966;BME280;4028;43.272;26.932;2024-02-26T11:14:57;98785.00;;;23.74;43.27
7966;BME280;4028;43.272;26.932;2024-02-26T11:17:28;98787.84;;;23.32;43.34
7966;BME280;4028;43.272;26.932;2024-02-26T11:19:57;98779.97;;;23.43;43.25
7966;BME280;4028;43.272;26.932;2024-02-26T11:22:28;98774.41;;;24.25;42.04
7966;BME280;4028;43.272;26.932;2024-02-26T11:24:54;98784.47;;;25.03;40.63
7966;BME280;4028;43.272;26.932;2024-02-26T11:27:26;98779.53;;;25.00;40.61
7966;BME280;4028;43.272;26.932;2024-02-26T11:29:56;98781.09;;;24.79;40.45
7966;BME280;4028;43.272;26.932;2024-02-26T11:32:26;98789.81;;;24.24;40.76
7966;BME280;4028;43.272;26.932;2024-02-26T11:34:53;98770.91;;;25.37;39.29
7966;BME280;4028;43.272;26.932;2024-02-26T11:37:19;98766.91;;;24.89;39.83
7966;BME280;4028;43.272;26.932;2024-02-26T11:39:45;98778.31;;;24.74;40.67
7966;BME280;4028;43.272;26.932;2024-02-26T11:42:14;98779.84;;;24.70;40.42
7966;BME280;4028;43.272;26.932;2024-02-26T11:44:40;98709.91;;;23.36;41.97
7966;BME280;4028;43.272;26.932;2024-02-26T11:47:17;98768.69;;;23.81;41.50
7966;BME280;4028;43.272;26.932;2024-02-26T11:49:43;98776.53;;;23.82;42.15
7966;BME280;4028;43.272;26.932;2024-02-26T11:52:10;98778.28;;;23.89;42.72
7966;BME280;4028;43.272;26.932;2024-02-26T11:54:52;98781.03;;;24.17;41.12
7966;BME280;4028;43.272;26.932;2024-02-26T12:00:14;98769.91;;;24.42;41.29
7966;BME280;4028;43.272;26.932;2024-02-26T12:05:17;98771.91;;;23.95;42.36
7966;BME280;4028;43.272;26.932;2024-02-26T12:07:49;98758.81;;;23.86;41.79
7966;BME280;4028;43.272;26.932;2024-02-26T12:10:23;98753.91;;;23.72;43.11
7966;BME280;4028;43.272;26.932;2024-02-26T12:13:00;98754.34;;;23.80;42.80
7966;BME280;4028;43.272;26.932;2024-02-26T12:15:36;98755.44;;;24.08;41.97
7966;BME280;4028;43.272;26.932;2024-02-26T12:18:03;98750.28;;;24.06;40.04
7966;BME280;4028;43.272;26.932;2024-02-26T12:20:29;98717.56;;;22.39;43.17
7966;BME280;4028;43.272;26.932;2024-02-26T12:22:56;98756.31;;;22.08;43.56
7966;BME280;4028;43.272;26.932;2024-02-26T12:25:26;98754.16;;;21.98;43.86
7966;BME280;4028;43.272;26.932;2024-02-26T12:27:53;98756.50;;;22.13;41.15
7966;BME280;4028;43.272;26.932;2024-02-26T12:30:19;98702.66;;;21.39;40.44
7966;BME280;4028;43.272;26.932;2024-02-26T12:32:46;98741.00;;;21.90;39.38
7966;BME280;4028;43.272;26.932;2024-02-26T12:35:13;98751.03;;;21.83;39.76
7966;BME280;4028;43.272;26.932;2024-02-26T12:37:39;98747.25;;;21.72;40.70
7966;BME280;4028;43.272;26.932;2024-02-26T12:40:07;98744.16;;;21.87;39.79
7966;BME280;4028;43.272;26.932;2024-02-26T12:42:34;98749.16;;;22.31;39.59
7966;BME280;4028;43.272;26.932;2024-02-26T12:45:14;98745.50;;;22.56;38.70
7966;BME280;4028;43.272;26.932;2024-02-26T12:47:44;98748.47;;;22.36;39.46
7966;BME280;4028;43.272;26.932;2024-02-26T12:50:15;98749.75;;;22.22;39.37
7966;BME280;4028;43.272;26.932;2024-02-26T12:52:44;98715.75;;;21.54;38.86
7966;BME280;4028;43.272;26.932;2024-02-26T12:55:15;98755.41;;;21.65;39.22
7966;BME280;4028;43.272;26.932;2024-02-26T12:57:43;98760.69;;;21.72;39.49
7966;BME280;4028;43.272;26.932;2024-02-26T13:00:15;98744.06;;;21.75;39.70
7966;BME280;4028;43.272;26.932;2024-02-26T13:02:42;98763.63;;;21.27;39.67
7966;BME280;4028;43.272;26.932;2024-02-26T13:05:10;98757.63;;;21.07;40.04
7966;BME280;4028;43.272;26.932;2024-02-26T13:07:43;98760.09;;;20.58;40.07
7966;BME280;4028;43.272;26.932;2024-02-26T13:10:10;98771.56;;;20.34;40.17